Opslagstavle - kort visning · info · telemetri · vejr · · Status · beacons · beskeder · opslag · søg · bevægelse · min konto

Denne side viser APRS bulletiner og udsendte beskeder fra de sidste 24 hours

Venligst vælg en specifik bulletin gruppe:
    all APRS FRA IGI LOCAL LUX MAREC MAREN SYDTD SYDWX WX

Bulletiner og udsendelser sendt fra stationer indenfor 500 km fra din lokation
Kaldesignal ID Besked Alder
N2NUO-15 BLN0 WxBot 1.22 US weather forecast via APRS message. 3h37m
N2NUO-15 BLN1 Send a message to N2NUO-15 for a weather forecast at your location. 3h37m
N2NUO-15 BLN2 see https://sites.google.com/site/ki6wjp/wxbot 3h37m
Bulletiner
Kaldesignal ID Besked Alder
456893 BLN2 TEMPERATURA MUITO BAIXA EM CACAPAVA DO SUL - 3ºC - Sun, 22 Jul 2018 05:00 AM BRT 23h5m
9Z4RG-6 BLN0 APRS IGate 144.390MHz SGate 145.825MHz 7m9s
CX2SA-AB BLN1 ((((((( CX2SA - Salto Uruguay ))))))) http://www.cx2sa.org 12m7s
CX2SA-AB BLN2 CX2SA-EM APRS Email - Example> your@maildomain Hello World! 12m5s
CX2SA-AB BLN3 Send message to CX2SA-WI like: F callsign to WHO-IS info 12m3s
CX2SA-AB BLN4 ((( CX2SA-S1 ))) iAPRS Network http://www.iaprs.net 12m1s
CX2SA-AB BLN5 DOWNLOAD latest iAPRS servers list at http://cx2sa.org/SERVERS.TXT 11m59s
CX8FS-2 BLN1 ISS over GF15VC:Orbt413,AOS:23Jul-09:02U,LOS:23Jul-09:05U 44m22s
DB2HTA BLN0 DB2HTA, Herby looking for Olivia mode QSO, db2hta@darc.de 1h11m
EA5GFY-1 BLN1 Echolink EA5GFY-L UHF 145.235 Tono 94.8 CARTAGENA [Cobertura 25 Km] 20h
HP2BWJ-10 BLN1 Estacion de Packet via Telnet/Radio hp2bwj.from-pa.com:6300 14h7m
HP2BWJ-10 BLN2 HP2BWJ-WX reporte de estado del tiempo en Colon Panama via APRS 14h4m
K7YVO-15 BLN0 K7YVO-10 Winlink RMS E-Mail Gateway 145.610 42m18s
KL2NV-7 BLN0 test 10h52m
LW1DSE BLN1 Radiostation partially powered from Sun energy (18 Cell's 10Wpk). 11h9m
PU2MUS-1 BLN1 Por Favor parem de enviar metar de aeroporto... 7h50m
PU2MUS-1 BLN2 Por favor parem de enviar metar de aeroporto 7h50m
PY5BK-10 BLN0 Ricardo Aurelio Seco - py5bk@qsl.net - (43) 9.9919-0404 40m40s
PY5BK-10 BLN1 Equipamentos e Projetos de APRS - http://www.py5bk.net/aprs 40m29s
SBAF BLN0 Campo Delio Jardim de Mattos Airport METAR SBAF 222300Z 24003KT 9999 FEW030 22/19 Q1023 8h39m
SBAN BLN0 Base Aerea Airport METAR SBAN 230700Z 07006KT CAVOK 17/06 Q1024 39m2s
SBAR BLN0 Santa Maria Airport METAR SBAR 230600Z 13008KT 9999 FEW020 25/19 Q1018 1h39m
SBAT BLN0 Alta Floresta Airport METAR SBAT 221600Z 10008KT CAVOK 33/13 Q1015 15h38m
SBBE BLN0 Val de Cans Julio Cezar Ribeiro International Airport METAR SBBE 230700Z 05004KT CAVOK 24/23 Q1012 38m44s
SBBH BLN0 Pampulha - Carlos Drummond de Andrade Airport METAR SBBH 230700Z 11004KT CAVOK 14/10 Q1024 38m34s
SBBI BLN0 Bacacheri Airport METAR SBBI 230100Z 03007KT 5000 BR BKN004 12/12 Q1026 6h38m
SBBQ BLN0 Major Brigadeiro Doorgal Borges Airport METAR SBBQ 222300Z 11002KT CAVOK 14/11 Q1028 8h38m
SBBR BLN0 Presidente Juscelino Kubistschek International Airport METAR SBBR 230700Z 00000KT CAVOK 10/07 Q1022 38m22s
SBBU BLN0 Bauru Airport METAR SBBU 230600Z 05008KT CAVOK 18/16 Q1021 1h38m
SBBV BLN0 Atlas Brasil Cantanhede Airport METAR SBBV 230700Z 01003KT 9999 SCT005 SCT015 FEW020TCU BKN070 24/24 Q1012 38m8s
SBCB BLN0 Cabo Frio Airport METAR SBCB 222100Z 19003KT 9999 FEW020 24/17 Q1022 10h37m
SBCC BLN0 Cachimbo Airport METAR SBCC 222000Z 03006KT CAVOK 32/09 Q1013 11h37m
SBCF BLN0 Tancredo Neves International Airport METAR SBCF 230700Z 10007KT CAVOK 15/10 Q1024 37m49s
SBCG BLN0 Campo Grande Airport METAR SBCG 230700Z 02005KT CAVOK 21/11 Q1018 37m38s
SBCH BLN0 Chapeco Airport METAR SBCH 230400Z 07008KT 9999 FEW020 SCT080 18/14 Q1021 3h37m
SBCJ BLN0 Carajas Airport METAR SBCJ 230300Z 00000KT CAVOK 21/16 Q1018 4h37m
SBCO BLN0 Canoas Airport METAR SBCO 230300Z 00000KT CAVOK 13/12 Q1019 4h36m
SBCP BLN0 Bartolomeu Lisandro Airport METAR SBCP 222300Z 17002KT CAVOK 21/20 Q1022 8h36m
SBCR BLN0 Corumba International Airport METAR SBCR 230000Z 09006KT CAVOK 22/16 Q1013 7h36m
SBCT BLN0 Afonso Pena Airport METAR SBCT 230700Z 04004KT 8000 OVC002 12/12 Q1025 36m50s
SBCX BLN0 Campo dos Bugres Airport METAR SBCX 221900Z 36010KT CAVOK 15/10 Q1020 12h36m
SBCY BLN0 Marechal Rondon Airport METAR SBCY 230700Z 34003KT CAVOK 17/16 Q1015 36m38s
SBCZ BLN0 Cruzeiro do Sul Airport METAR SBCZ 230700Z 27002KT CAVOK 20/20 Q1013 36m25s
SBDN BLN0 Presidente Prudente Airport METAR SBDN 230600Z 12006KT 100V160 CAVOK 19/13 Q1019 1h36m
SBEG BLN0 Eduardo Gomes International Airport METAR SBEG 230700Z 00000KT CAVOK 23/22 Q1011 36m13s
SBES BLN0 Sao Pedro da Aldeia Airport METAR SBES 222200Z 00000KT 9999 FEW015 20/19 Q1022 9h35m
SBFI BLN0 Cataratas International Airport METAR SBFI 230700Z 10006KT CAVOK 18/16 Q1018 35m49s
SBFL BLN0 Hercilio Luz International Airport METAR SBFL 230700Z 33014KT 9999 BKN030 18/15 Q1021 35m38s
SBFN BLN0 Fernando de Noronha Airport METAR SBFN 222200Z 14014KT 9999 SCT015 24/23 Q1014 9h34m
SBFZ BLN0 Pinto Martins International Airport METAR SBFZ 230700Z 14007KT CAVOK 24/21 Q1013 35m17s
SBGL BLN0 Galeao - Antonio Carlos Jobim International Airport METAR SBGL 230700Z 06002KT 8000 SCT006 BKN025 20/19 Q1022 35m1s
SBGM BLN0 Guajara-Mirim Airport METAR SBGM 221900Z 20005KT CAVOK 31/19 Q1012 12h34m
SBGO BLN0 Santa Genoveva Airport METAR SBGO 230700Z 21003KT CAVOK 18/07 Q1020 34m49s
SBGR BLN0 Guarulhos - Governador Andre Franco Montoro International Airport METAR SBGR 230700Z 06010KT 8000 OVC006 16/16 Q1024 34m34s
SBGW BLN0 Guaratingueta Airport METAR SBGW 222300Z 08003KT CAVOK 20/14 Q1024 8h34m
SBHT BLN0 Altamira Airport METAR SBHT 230100Z 00000KT CAVOK 23/23 Q1013 6h34m
SBIH BLN0 Itaituba Airport METAR SBIH 222200Z /////KT CAVOK 32/22 Q1010 9h33m
SBIL BLN0 Bahia - Jorge Amado Airport METAR SBIL 230300Z 23006KT 9999 -SHRA SCT025 SCT040 21/20 Q1021 4h33m
SBIP BLN0 Usiminas Airport METAR SBIP 222000Z 01010KT CAVOK 28/17 Q1020 11h32m
SBIZ BLN0 Prefeito Renato Moreira Airport METAR SBIZ 230700Z 23002KT CAVOK 25/21 Q1012 33m49s
SBJP BLN0 Presidente Castro Pinto Airport METAR SBJP 230700Z 17005KT CAVOK 20/19 Q1016 33m37s
SBJR BLN0 Jacarepagua - Roberto Marinho Airport METAR SBJR 230000Z 16005KT 7000 SCT012 22/21 Q1023 7h32m
SBJU BLN0 Orlando Bezerra de Menezes Airport METAR SBJU 230600Z 17009KT 9999 SCT020 23/17 Q1019 1h32m
SBJV BLN0 Lauro Carneiro de Loyola Airport METAR SBJV 222100Z 33003KT 300V010 9999 OVC030 18/15 Q1023 10h32m
SBKG BLN0 Presidente Joao Suassuna Airport METAR SBKG 230300Z 14006KT 9999 SCT013 19/18 Q1020 4h32m
SBKP BLN0 Viracopos International Airport METAR SBKP 230700Z 12007KT CAVOK 16/13 Q1022 33m26s
SBLE BLN0 Chapada Diamantina Airport METAR SBLE 221800Z 04009KT 9999 SCT035 27/13 Q1019 13h32m
SBLO BLN0 Governador Jose Richa Airport METAR SBLO 230700Z 00000KT CAVOK 17/14 Q1021 32m50s
SBLS BLN0 Lagoa Santa Airport METAR SBLS 230100Z 17006KT CAVOK 17/11 Q1025 6h32m
SBMA BLN0 Maraba Airport METAR SBMA 230700Z 22002KT CAVOK 24/21 Q1012 32m38s
SBME BLN0 Macae Airport METAR SBME 230000Z 32003KT CAVOK 19/18 Q1023 7h31m
SBMG BLN0 Regional de Maringa - Silvio Nane Junior Airport METAR SBMG 230200Z 06011KT CAVOK 21/14 Q1019 5h32m
SBMK BLN0 Mario Ribeiro Airport METAR SBMK 230400Z 00000KT CAVOK 17/10 Q1023 3h32m
SBMN BLN0 Ponta Pelada Airport METAR SBMN 230700Z 00000KT CAVOK 25/24 Q1011 31m49s
SBMO BLN0 Zumbi dos Palmares Airport METAR SBMO 230700Z 28003KT 9999 FEW020 SCT070 20/20 Q1018 31m38s
SBMQ BLN0 Alberto Alcolumbre Airport METAR SBMQ 230700Z 25001KT 9999 FEW015 SCT100 26/26 Q1011 31m28s
SBMS BLN0 Dix-Sept Rosado Airport METAR SBMS 221200Z 18010KT CAVOK 30/18 Q1014 19h30m
SBMT BLN0 Campo de Marte Airport METAR SBMT 230200Z 10005KT 8000 BKN012 16/14 Q1025 5h31m
SBNF BLN0 Ministro Victor Konder International Airport METAR SBNF 230300Z 26007KT 9999 FEW015 OVC025 17/15 Q1023 4h30m
SBNM BLN0 Santo Angelo Airport METAR SBNM 221800Z 12006KT 9999 BKN022 BKN067 19/12 Q1018 13h30m
SBNT BLN0 Augusto Severo Airport METAR SBNT 230700Z 18007KT CAVOK 22/19 Q1015 31m15s
SBOI BLN0 Oiapoque Airport METAR SBOI 222000Z 12006KT 9999 SCT020 31/22 Q1010 11h29m
SBPA BLN0 Salgado Filho Airport METAR SBPA 230700Z VRB02KT CAVOK 14/14 Q1021 30m43s
SBPB BLN0 Prefeito Doutor Joao Silva Filho Airport METAR SBPB 222145Z 07007KT 9999 FEW017 BKN100 27/24 Q1011 9h30m
SBPC BLN0 Pocos de Caldas Airport METAR SBPC 222000Z 11005KT 9999 FEW015 BKN080 22/12 Q1024 11h28m
SBPF BLN0 Lauro Kurtz Airport METAR SBPF 221900Z 08009KT 9999 SCT040 SCT090 18/12 Q1019 12h29m
SBPJ BLN0 Brigadeiro Lysias Rodrigues Airport METAR SBPJ 230600Z 13003KT CAVOK 21/13 Q1014 1h29m
SBPK BLN0 Pelotas Airport METAR SBPK 222145Z 09006KT CAVOK 13/12 Q1019 9h29m
SBPL BLN0 Senador Nilo Coelho Airport METAR SBPL 230700Z 13007KT 9999 SCT025 21/14 Q1019 30m31s
SBPP BLN0 Ponta Pora Airport METAR SBPP 222200Z 36004KT CAVOK 22/12 Q1016 9h29m
SBPR BLN0 Carlos Prates Airport METAR SBPR 221700Z 10015KT 9999 SCT025 24/11 Q1023 14h28m
SBPS BLN0 Porto Seguro Airport METAR SBPS 230700Z 24003KT 8000 VCSH SCT015 BKN020 20/19 Q1020 29m49s
SBPV BLN0 Governador Jorge Teixeira de Oliveira Airport METAR SBPV 230700Z 00000KT CAVOK 20/19 Q1012 29m38s
SBQV BLN0 Vitoria da Conquista Airport METAR SBQV 230100Z 14005KT 9999 BKN020 16/14 Q1025 6h29m
SBRB BLN0 Placido de Castro Airport METAR SBRB 230700Z 00000KT CAVOK 18/16 Q1013 29m27s
SBRF BLN0 Guararapes - Gilberto Freyre International Airport METAR SBRF 230700Z 15012KT 9999 SCT025 SCT050 24/19 Q1016 29m17s
SBRJ BLN0 Santos Dumont Airport METAR SBRJ 230700Z 09003KT 8000 FEW030 22/21 Q1021 29m5s
SBRP BLN0 Leite Lopes Airport METAR SBRP 230700Z 14006KT CAVOK 17/11 Q1020 28m55s
SBSC BLN0 Santa Cruz Airport METAR SBSC 230700Z 00000KT 9999 SCT015 BKN040 19/19 Q1022 28m43s
SBSJ BLN0 Professor Urbano Ernesto Stumpf Airport METAR SBSJ 230700Z 09002KT 8000 SCT013 13/12 Q1025 28m28s
SBSL BLN0 Marechal Cunha Machado International Airport METAR SBSL 230700Z 06004KT 9999 FEW017 SCT080 26/24 Q1012 28m16s
SBSM BLN0 Santa Maria Airport METAR SBSM 230300Z 27002KT 9999 FEW030 BKN070 11/10 Q1020 4h28m
SBSN BLN0 Maestro Wilson Fonseca Airport METAR SBSN 230700Z 15003KT CAVOK 23/23 Q1011 28m5s
SBSP BLN0 Congonhas Airport METAR SBSP 230700Z AUTO 07008KT 040V100 7000 OVC006 16/14 Q1024 27m55s
SBSR BLN0 Sao Jose do Rio Preto Airport METAR SBSR 230700Z 10005KT CAVOK 20/10 Q1020 27m49s
SBST BLN0 Base Aerea de Santos Airport METAR SBST 222300Z 24002KT 3000 BR OVC017 18/17 Q1023 8h27m
SBSV BLN0 Deputado Luiz Eduardo Magalhaes International Airport METAR SBSV 230700Z 13007KT 9999 SCT020 SCT070 25/20 Q1019 27m38s
SBTC BLN0 Hotel Transamerica Airport METAR SBTC 221900Z 24002KT 9999 FEW020 OVC070 24/20 Q1020 12h25m
SBTE BLN0 Senador Petronio Portela Airport METAR SBTE 230700Z 26001KT CAVOK 25/22 Q1012 27m26s
SBTF BLN0 Tefe Airport METAR SBTF 222245Z 00000KT 9999 FEW015 27/24 Q1010 8h26m
SBTT BLN0 Tabatinga Airport METAR SBTT 222300Z 00000KT CAVOK 26/22 Q1012 8h26m
SBUA BLN0 Sao Gabriel da Cachoeira Airport METAR SBUA 222000Z 07006KT 9999 SCT020 27/24 Q1010 11h24m
SBUF BLN0 Paulo Afonso Airport METAR SBUF 221200Z 11012KT 9999 BKN018 25/17 Q1019 19h23m
SBUG BLN0 Rubem Berta Airport METAR SBUG 222200Z 10008KT 9999 -RA SCT017 OVC070 10/09 Q1018 9h26m
SBUL BLN0 Ten. Cel. Aviador Cesar Bombonato Airport METAR SBUL 230100Z 08006KT CAVOK 20/09 Q1023 6h26m
SBUR BLN0 Mario de Almeida Franco Airport METAR SBUR 230300Z 07007KT CAVOK 21/07 Q1023 4h26m
SBVH BLN0 Vilhena Airport METAR SBVH 222300Z 04004KT CAVOK 21/13 Q1016 8h25m
SBVT BLN0 Eurico de Aguiar Salles Airport METAR SBVT 230700Z 31003KT 9999 SCT020 19/18 Q1022 26m49s
SBYS BLN0 Campo Fontenelle Airport METAR SBYS 230200Z 00000KT CAVOK 16/12 Q1023 5h26m
WA1GOV-10 BLN0 APRS to Twitter Gateway-Send an APRS message to WA1GOV-10 8h36m
WA1GOV-10 BLN1 Your call and message will appear as a tweet from @wa1gov 8h36m
WA1GOV-10 BLN2 Include your Twitter ID or IDs to receive notifications 8h36m
WA1GOV-10 BLN3 Get the next SATELLITE pass prediction for your QTH! 8h36m
WA1GOV-10 BLN4 Send an APRS message to WA1GOV-10 with a single 8h36m
WA1GOV-10 BLN5 uppercase entry of ISS, AO-85, AO-91, AO-92 or SO-50 8h36m
WXBOT BLN0 WxBot 1.25 US weather forecast via APRS message. 2h21m
WXBOT BLN1 Send a message to WXBOT for a weather forecast at your location. 2h21m
WXBOT BLN2 see https://sites.google.com/site/ki6wjp/wxbot 2h21m
WXSVR-AU BLN0 WxSvr 1.00 AU weather forecast via APRS message. 1h56m
WXSVR-AU BLN1 Send a message to WXSVR-AU for a weather forecast at your location. 1h56m
WXSVR-AU BLN2 see http://wxsvr.aprs.net.au for more info 1h56m
WXYO BLN0 WxBot 1.22 RO weather forecast via APRS message. 3h50m
WXYO BLN1 Send a message to WXYO for a weather forecast at your location. 3h50m
WXYO BLN2 see https://sites.google.com/site/ki6wjp/wxbot 3h50m
Beskeder
Kaldesignal ID Besked Alder
EA5GFY-1 BLNA RADAR 24 Hours Weather via APRS On-Line Web http://qrz.com/call/EA5GFY 20h1m
LW1DSE BLNA Estación parcialmente alimentada con energía solar (18 celdas 10Wpk). 11h10m
VK5RHO-1 BLNB Join the Email Group aprs.net.au/mailman/listinfo/ozaprs 3m21s
VK5RSC-1 BLNA Info/Help on APRS in Sth Aust at http://vk5.aprs.net.au 7m42s
Andre grupper
Kaldesignal ID Besked Alder
F8ARO-AB BLN1FRA CQ Serveur APRS 11h37m
F8ARO-AB BLN2FRA [To] CQSRVR-FR [Text] CQ message 11h37m
F8ARO-AB BLN3FRA Message APRS Email 11h37m
F8ARO-AB BLN4FRA [To] MAIL-FR [Text] email@domaine message 11h36m
F8ARO-AB BLN5FRA Annuaire QRZ.com 11h36m
F8ARO-AB BLN6FRA [To] QUI-FR [Text] f indicatif 11h36m
F8ARO-AB BLN7FRA FRANCE DMR TG 208 11h36m
IZ6RDB BLNEMAREN Adriatico Settentrionale: In atto isolati temporali con colpi di ve 11h40m
IZ6RDB BLNFMAREN Adriatico Settentrionale: nto. 11h40m
IZ6RDB BLNHMAREC Adriatico Centrale: In atto isolati temporali con colpi di vento. 10h39m
KF5TOT-3 BLN0LOCAL MuscatineARC Monthly ARES Mtg 7/23 6:30p8Myscatine Mall 1h27m
LX0APN-2 BLNALUX XLX270 Reflector https://xlx270.epf.lu/ 39m15s
LX0APR-2 BLNDIGI Pse use WIDEx-x & LUXx-x only , TNX 3h48m
LX0KA-10 BLNALUX ADRAD Club-Owend ass den 8te August Brasserie du Musée L-3714 Rümelingen 59s
LX1CU-13 BLNALUX XLX Reflector goes DMR https://xlx270.epf.lu/ 6m12s
LX6K-10 BLNALUX XLX270 B >< BM TG 27090 , You can reach us . 73 2m36s
NEUTBA BLN1SYDWX Sydney Forcast 24th 22C Sunny. 1h5m
NEUTBA BLN2SYDTD Tide 1.65M, Vis 30Km, Cloud 01 Okt, Air Qual 44, UV idx 7m51s
OK1COM-10 BLN4WX SIGWX: ISOL, SE HALF 16/19 OCNL TS 10h36m
PY5DCP-1 BLN REER ATENCAO ALGUMAS REGIONAIS ESTARAO EM SIMULADO NO PROX 22/7 15m36s
YM2KDU BLN APRS Sabitte YM2KDU,WIDE2-2 Mobilde WIDE1-1,WIDE2-2 3h30m
YM2KY BLN1LOCAL info@sakrad.org 27m33s
Om denne side
Denne side viser real-time informationer fra Automatic Position Reporting System Internet netværket (APRS-IS). APRS er brugt af amateur (ham) radio Radioamatør til at sende real-time positions information, vejr data, telemetri og beskeder over en radio. Et køretøj udstyret med en GPS modtager, a VHF transmitter eller HF transceiver og en lille computer kaldet en tracker, sender sin position, hastighed og kurs i små data pakker, som så bliver modtaget af nærliggende IGate modtage stationer som videre sender pakkerne til Internet. Systemer forbundet til Internet kan sende informationer direkte til APRS-IS uden brug af en radio og/eller samle og vise informationer sendt fra et hvert sted på jorden.
FAQ · Blog · Diskussions gruppe · Linker til aprs.fi · AIS beliggenheder · Service status · Database statistikker: · Advertising on aprs.fi · Tekniske detaljer · API · Ændre log · Planlagte ændringer · Anerkendelse og tak · Terms Of Service · iPhone/iPad APRS